createdAt,value
2018-02-15T00:00:07.198Z,66.42
2018-02-15T00:01:11.986Z,66.45
2018-02-15T00:02:16.689Z,66.52
2018-02-15T00:03:21.518Z,66.57
2018-02-15T00:04:26.231Z,66.56
2018-02-15T00:05:30.806Z,66.57
2018-02-15T00:06:35.715Z,66.59
2018-02-15T00:07:40.326Z,66.62
2018-02-15T00:08:44.905Z,66.66
2018-02-15T00:09:49.599Z,66.70
2018-02-15T00:10:54.160Z,66.73
2018-02-15T00:11:59.218Z,66.81
2018-02-15T00:13:03.979Z,66.79
2018-02-15T00:14:08.765Z,66.81
2018-02-15T00:15:14.027Z,66.79
2018-02-15T00:16:19.828Z,66.82
2018-02-15T00:17:25.197Z,66.84
2018-02-15T00:18:30.161Z,66.90
2018-02-15T00:19:34.788Z,66.89
2018-02-15T00:20:39.425Z,66.90
2018-02-15T00:21:44.386Z,66.93
2018-02-15T00:22:49.004Z,66.95
2018-02-15T00:23:53.619Z,66.93
2018-02-15T00:24:59.219Z,66.92
2018-02-15T00:26:04.634Z,66.97
2018-02-15T00:27:09.661Z,67.01
2018-02-15T00:28:14.443Z,67.03
2018-02-15T00:29:19.204Z,67.07
2018-02-15T00:30:24.003Z,67.04
2018-02-15T00:31:29.017Z,67.04
2018-02-15T00:32:34.496Z,67.10
2018-02-15T00:33:39.483Z,67.16
2018-02-15T00:34:44.607Z,67.13
2018-02-15T00:35:50.256Z,67.08
2018-02-15T00:36:55.115Z,67.14
2018-02-15T00:38:00.127Z,67.19
2018-02-15T00:39:06.883Z,67.20
2018-02-15T00:40:12.373Z,67.22
2018-02-15T00:41:17.152Z,67.27
2018-02-15T00:42:23.964Z,67.25
2018-02-15T00:43:28.623Z,67.30
2018-02-15T00:44:35.434Z,67.33
2018-02-15T00:45:41.157Z,67.37
2018-02-15T00:46:46.852Z,67.38
2018-02-15T00:47:51.465Z,67.48
2018-02-15T00:48:56.141Z,67.48
2018-02-15T00:50:02.116Z,67.52
2018-02-15T00:51:07.078Z,67.54
2018-02-15T00:52:11.722Z,67.48
2018-02-15T00:53:16.597Z,67.49
2018-02-15T00:54:22.803Z,67.52
2018-02-15T00:55:27.421Z,67.53
2018-02-15T00:56:32.204Z,67.50
2018-02-15T00:57:37.807Z,67.56
2018-02-15T00:58:42.608Z,67.57
2018-02-15T00:59:47.367Z,67.59
2018-02-15T01:00:53.614Z,67.54
2018-02-15T01:01:58.437Z,67.58
2018-02-15T01:03:03.646Z,67.61
2018-02-15T01:04:09.113Z,67.64
2018-02-15T01:05:13.666Z,67.68
2018-02-15T01:06:19.027Z,67.65
2018-02-15T01:07:23.877Z,67.65
2018-02-15T01:08:31.472Z,67.67
2018-02-15T01:09:36.033Z,67.64
2018-02-15T01:10:41.748Z,67.69
2018-02-15T01:11:46.341Z,67.70
2018-02-15T01:12:50.822Z,67.70
2018-02-15T01:13:55.423Z,67.72
2018-02-15T01:15:00.331Z,67.79
2018-02-15T01:16:04.894Z,67.81
2018-02-15T01:17:10.275Z,67.81
2018-02-15T01:18:16.788Z,67.82
2018-02-15T01:19:21.359Z,67.72
2018-02-15T01:20:25.966Z,67.70
2018-02-15T01:21:30.475Z,67.73
2018-02-15T01:22:34.982Z,67.74
2018-02-15T01:23:39.924Z,67.72
2018-02-15T01:24:45.553Z,67.78
2018-02-15T01:25:51.277Z,67.78
2018-02-15T01:26:55.947Z,67.76
2018-02-15T01:28:00.841Z,67.75
2018-02-15T01:29:05.567Z,67.72
2018-02-15T01:30:10.910Z,67.71
2018-02-15T01:31:15.573Z,67.81
2018-02-15T01:32:20.942Z,67.78
2018-02-15T01:33:26.523Z,67.78
2018-02-15T01:34:31.147Z,67.75
2018-02-15T01:35:35.780Z,67.78
2018-02-15T01:36:42.086Z,67.83
2018-02-15T01:37:47.380Z,67.85
2018-02-15T01:38:52.702Z,67.83
2018-02-15T01:39:57.195Z,67.84
2018-02-15T01:41:01.722Z,67.83
2018-02-15T01:42:06.723Z,67.78
2018-02-15T01:43:11.517Z,67.77
2018-02-15T01:44:16.208Z,67.78
2018-02-15T01:45:20.593Z,67.76
2018-02-15T01:46:25.004Z,67.75
2018-02-15T01:47:29.759Z,67.64
2018-02-15T01:48:34.384Z,67.63
2018-02-15T01:49:45.098Z,67.61
2018-02-15T01:50:49.918Z,67.59
2018-02-15T01:51:54.919Z,67.57
2018-02-15T01:52:59.694Z,67.58
2018-02-15T01:54:05.591Z,67.49
2018-02-15T01:55:10.993Z,67.51
2018-02-15T01:56:15.943Z,67.52
2018-02-15T01:57:20.352Z,67.51
2018-02-15T01:58:24.772Z,67.51
2018-02-15T01:59:30.084Z,67.45
2018-02-15T02:00:34.604Z,67.45
2018-02-15T02:01:39.238Z,67.50
2018-02-15T02:02:45.004Z,67.53
2018-02-15T02:03:49.755Z,67.54
2018-02-15T02:04:54.381Z,67.57
2018-02-15T02:05:58.864Z,67.50
2018-02-15T02:07:04.154Z,67.44
2018-02-15T02:08:08.647Z,67.42
2018-02-15T02:09:13.443Z,67.47
2018-02-15T02:10:18.078Z,67.42
2018-02-15T02:11:22.718Z,67.41
2018-02-15T02:12:28.850Z,67.40
2018-02-15T02:13:33.707Z,67.50
2018-02-15T02:14:38.335Z,67.58
2018-02-15T02:15:43.270Z,67.53
2018-02-15T02:16:48.124Z,67.52
2018-02-15T02:19:08.964Z,67.50
2018-02-15T02:20:14.045Z,67.45
2018-02-15T02:21:19.004Z,67.48
2018-02-15T02:22:23.759Z,67.48
2018-02-15T02:23:28.891Z,67.47
2018-02-15T02:24:34.166Z,67.49
2018-02-15T02:25:39.260Z,67.55
2018-02-15T02:26:45.253Z,67.59
2018-02-15T02:27:50.800Z,67.62
2018-02-15T02:28:56.315Z,67.64
2018-02-15T02:30:01.151Z,67.63
2018-02-15T02:31:07.012Z,67.61
2018-02-15T02:32:11.629Z,67.54
2018-02-15T02:33:17.193Z,67.53
2018-02-15T02:34:21.793Z,67.52
2018-02-15T02:35:26.436Z,67.48
2018-02-15T02:36:31.016Z,67.46
2018-02-15T02:37:36.220Z,67.41
2018-02-15T02:38:40.742Z,67.41
2018-02-15T02:39:45.469Z,67.41
2018-02-15T02:40:50.729Z,67.41
2018-02-15T02:41:56.238Z,67.39
2018-02-15T02:43:00.877Z,67.42
2018-02-15T02:44:05.930Z,67.28
2018-02-15T02:45:10.610Z,67.38
2018-02-15T02:46:15.186Z,67.37
2018-02-15T02:47:20.050Z,67.35
2018-02-15T02:48:24.683Z,67.30
2018-02-15T02:49:29.313Z,67.35
2018-02-15T02:50:33.927Z,67.28
2018-02-15T02:51:38.540Z,67.33
2018-02-15T02:52:43.165Z,67.29
2018-02-15T02:53:48.167Z,67.31
2018-02-15T02:54:53.383Z,67.26
2018-02-15T02:55:58.085Z,67.25
2018-02-15T02:57:03.200Z,67.24
2018-02-15T02:58:07.767Z,67.11
2018-02-15T02:59:12.359Z,67.09
2018-02-15T03:00:17.811Z,67.14
2018-02-15T03:01:23.211Z,67.12
2018-02-15T03:02:27.931Z,67.09
2018-02-15T03:03:32.685Z,67.02
2018-02-15T03:04:37.969Z,66.84
2018-02-15T03:05:42.769Z,66.73
2018-02-15T03:06:47.800Z,66.66
2018-02-15T03:07:52.445Z,66.69
2018-02-15T03:08:56.946Z,66.52
2018-02-15T03:10:02.764Z,66.34
2018-02-15T03:11:07.676Z,66.12
2018-02-15T03:12:12.917Z,66.06
2018-02-15T03:13:19.231Z,66.01
2018-02-15T03:14:24.534Z,66.04
2018-02-15T03:15:29.811Z,65.38
2018-02-15T03:16:35.407Z,65.51
2018-02-15T03:17:40.165Z,65.66
2018-02-15T03:18:44.903Z,65.76
2018-02-15T03:19:51.776Z,65.79
2018-02-15T03:20:56.606Z,65.86
2018-02-15T03:22:02.444Z,65.92
2018-02-15T03:23:07.021Z,65.97
2018-02-15T03:24:12.308Z,66.01
2018-02-15T03:25:16.914Z,66.01
2018-02-15T03:26:21.789Z,65.97
2018-02-15T03:27:26.383Z,65.88
2018-02-15T03:28:31.791Z,65.87
2018-02-15T03:29:36.440Z,65.88
2018-02-15T03:30:41.044Z,65.86
2018-02-15T03:31:45.777Z,65.88
2018-02-15T03:32:51.195Z,65.81
2018-02-15T03:33:55.936Z,65.80
2018-02-15T03:35:01.174Z,65.77
2018-02-15T03:36:05.881Z,65.81
2018-02-15T03:37:10.659Z,65.82
2018-02-15T03:38:16.244Z,65.81
2018-02-15T03:39:21.537Z,65.78
2018-02-15T03:40:26.145Z,65.89
2018-02-15T03:41:31.773Z,65.97
2018-02-15T03:42:36.413Z,66.05
2018-02-15T03:43:42.189Z,66.08
2018-02-15T03:44:46.701Z,66.16
2018-02-15T03:45:51.696Z,66.20
2018-02-15T03:46:56.557Z,66.21
2018-02-15T03:48:01.245Z,66.18
2018-02-15T03:49:05.832Z,66.17
2018-02-15T03:50:10.625Z,66.22
2018-02-15T03:51:15.834Z,66.23
2018-02-15T03:52:20.883Z,66.25
2018-02-15T03:53:25.674Z,66.28
2018-02-15T03:54:30.441Z,66.32
2018-02-15T03:55:36.274Z,66.42
2018-02-15T03:56:41.004Z,66.49
2018-02-15T03:57:45.771Z,66.49
2018-02-15T03:58:51.105Z,66.54
2018-02-15T03:59:56.466Z,66.58
2018-02-15T04:01:01.223Z,66.58
2018-02-15T04:02:06.699Z,66.65
2018-02-15T04:03:11.432Z,66.69
2018-02-15T04:04:17.204Z,66.76
2018-02-15T04:05:24.190Z,66.86
2018-02-15T04:06:29.325Z,66.92
2018-02-15T04:07:34.233Z,67.00
2018-02-15T04:08:39.126Z,67.07
2018-02-15T04:09:45.211Z,67.16
2018-02-15T04:10:50.245Z,67.16
2018-02-15T04:11:56.147Z,67.22
2018-02-15T04:13:01.924Z,67.28
2018-02-15T04:14:07.851Z,67.39
2018-02-15T04:15:13.275Z,67.44
2018-02-15T04:16:18.250Z,67.48
2018-02-15T04:17:23.372Z,67.48
2018-02-15T04:18:28.638Z,67.50
2018-02-15T04:19:33.245Z,67.53
2018-02-15T04:20:37.846Z,67.59
2018-02-15T04:21:42.895Z,67.61
2018-02-15T04:22:49.044Z,67.61
2018-02-15T04:23:55.298Z,67.59
2018-02-15T04:25:00.252Z,67.59
2018-02-15T04:26:05.650Z,67.61
2018-02-15T04:27:13.770Z,67.61
2018-02-15T04:28:18.459Z,67.61
2018-02-15T04:29:23.254Z,67.68
2018-02-15T04:30:28.549Z,67.78
2018-02-15T04:31:33.854Z,67.77
2018-02-15T04:32:39.808Z,67.73
2018-02-15T04:33:45.764Z,67.76
2018-02-15T04:34:51.142Z,67.78
2018-02-15T04:35:56.441Z,67.81
2018-02-15T04:37:01.484Z,67.81
2018-02-15T04:38:06.476Z,67.83
2018-02-15T04:39:11.335Z,67.81
2018-02-15T04:40:16.697Z,67.82
2018-02-15T04:41:21.446Z,67.84
2018-02-15T04:42:26.220Z,67.90
2018-02-15T04:43:30.803Z,67.84
2018-02-15T04:44:36.156Z,67.88
2018-02-15T04:45:40.853Z,67.82
2018-02-15T04:46:45.820Z,67.86
2018-02-15T04:47:50.406Z,67.90
2018-02-15T04:48:55.752Z,67.91
2018-02-15T04:50:00.395Z,67.86
2018-02-15T04:51:05.315Z,67.82
2018-02-15T04:52:09.930Z,67.89
2018-02-15T04:53:14.529Z,67.84
2018-02-15T04:56:39.046Z,67.80
2018-02-15T04:57:44.139Z,67.84
2018-02-15T04:58:49.561Z,67.82
2018-02-15T04:59:55.054Z,67.78
2018-02-15T05:01:00.670Z,67.78
2018-02-15T05:02:05.739Z,67.77
2018-02-15T05:03:12.540Z,67.76
2018-02-15T05:04:17.266Z,67.69
2018-02-15T05:05:22.029Z,67.78
2018-02-15T05:06:27.083Z,67.78
2018-02-15T05:07:31.866Z,67.70
2018-02-15T05:08:36.484Z,67.72
2018-02-15T05:09:41.541Z,67.68
2018-02-15T05:10:46.286Z,67.68
2018-02-15T05:11:50.968Z,67.65
2018-02-15T05:12:55.697Z,67.69
2018-02-15T05:14:00.385Z,67.69
2018-02-15T05:15:05.384Z,67.67
2018-02-15T05:16:10.390Z,67.70
2018-02-15T05:17:15.088Z,67.69
2018-02-15T05:18:19.926Z,67.63
2018-02-15T05:19:26.066Z,67.63
2018-02-15T05:20:30.701Z,67.68
2018-02-15T05:21:35.766Z,67.66
2018-02-15T05:22:40.673Z,67.72
2018-02-15T05:24:54.619Z,67.73
2018-02-15T05:25:59.101Z,67.85
2018-02-15T05:27:04.049Z,68.09
2018-02-15T05:28:09.883Z,68.06
2018-02-15T05:29:14.416Z,68.05
2018-02-15T05:30:19.004Z,68.09
2018-02-15T05:31:23.624Z,68.23
2018-02-15T05:32:28.207Z,68.39
2018-02-15T05:33:33.134Z,68.39
2018-02-15T05:34:38.714Z,68.43
2018-02-15T05:35:43.396Z,68.43
2018-02-15T05:36:48.122Z,68.54
2018-02-15T05:37:52.819Z,68.63
2018-02-15T05:38:57.630Z,68.74
2018-02-15T05:40:02.811Z,68.83
2018-02-15T05:41:08.592Z,68.98
2018-02-15T05:42:13.087Z,69.25
2018-02-15T05:43:18.236Z,69.57
2018-02-15T05:44:22.833Z,69.83
2018-02-15T05:45:27.413Z,70.22
2018-02-15T05:46:32.039Z,70.53
2018-02-15T05:47:36.907Z,71.04
2018-02-15T05:48:41.540Z,71.62
2018-02-15T05:49:47.549Z,72.02
2018-02-15T05:50:53.347Z,72.30
2018-02-15T05:51:58.058Z,72.62
2018-02-15T05:53:02.771Z,72.94
2018-02-15T05:54:08.213Z,73.08
2018-02-15T05:55:12.803Z,73.59
2018-02-15T05:56:17.496Z,73.78
2018-02-15T05:57:22.078Z,73.99
2018-02-15T05:58:26.546Z,74.45
2018-02-15T05:59:31.497Z,74.70
2018-02-15T06:00:36.910Z,74.93
2018-02-15T06:01:41.979Z,75.26
2018-02-15T06:02:47.268Z,75.65
2018-02-15T06:03:52.844Z,76.07
2018-02-15T06:04:57.559Z,76.49
2018-02-15T06:06:02.214Z,76.68
2018-02-15T06:07:06.959Z,77.38
2018-02-15T06:08:11.748Z,77.58
2018-02-15T06:09:17.142Z,77.83
2018-02-15T06:10:21.933Z,78.06
2018-02-15T06:11:27.561Z,78.20
2018-02-15T06:12:32.683Z,78.33
2018-02-15T06:13:38.124Z,78.50
2018-02-15T06:14:42.793Z,78.77
2018-02-15T06:15:48.829Z,79.16
2018-02-15T06:16:53.464Z,79.69
2018-02-15T06:17:58.136Z,80.18
2018-02-15T06:19:02.790Z,80.52
2018-02-15T06:20:12.496Z,80.70
2018-02-15T06:21:17.151Z,80.85
2018-02-15T06:22:22.864Z,81.03
2018-02-15T06:23:27.653Z,81.11
2018-02-15T06:24:32.722Z,81.40
2018-02-15T06:25:37.604Z,81.64
2018-02-15T06:26:42.414Z,81.88
2018-02-15T06:27:47.403Z,81.85
2018-02-15T06:28:52.954Z,81.88
2018-02-15T06:29:58.947Z,81.96
2018-02-15T06:31:03.752Z,81.99
2018-02-15T06:32:09.688Z,82.29
2018-02-15T06:33:14.962Z,82.67
2018-02-15T06:34:20.450Z,82.92
2018-02-15T06:35:26.729Z,83.20
2018-02-15T06:36:32.272Z,83.33
2018-02-15T06:37:37.145Z,83.40
2018-02-15T06:38:42.079Z,83.61
2018-02-15T06:39:46.914Z,83.73
2018-02-15T06:40:52.010Z,83.82
2018-02-15T06:41:56.718Z,83.89
2018-02-15T06:43:01.922Z,83.91
2018-02-15T06:44:07.767Z,84.00
2018-02-15T06:45:13.012Z,84.07
2018-02-15T06:46:18.115Z,84.23
2018-02-15T06:47:23.817Z,84.41
2018-02-15T06:48:28.594Z,84.58
2018-02-15T06:49:34.356Z,84.70
2018-02-15T06:50:40.984Z,84.81
2018-02-15T06:51:45.793Z,84.93
2018-02-15T06:52:50.652Z,85.01
2018-02-15T06:53:55.444Z,85.09
2018-02-15T06:55:00.601Z,85.15
2018-02-15T06:56:05.697Z,85.22
2018-02-15T06:57:10.549Z,85.46
2018-02-15T06:58:15.357Z,85.79
2018-02-15T06:59:20.173Z,86.03
2018-02-15T07:00:25.527Z,86.22
2018-02-15T07:01:30.369Z,86.56
2018-02-15T07:02:35.489Z,86.80
2018-02-15T07:03:40.269Z,86.99
2018-02-15T07:04:45.254Z,87.27
2018-02-15T07:05:50.095Z,87.50
2018-02-15T07:06:55.022Z,87.70
2018-02-15T07:07:59.914Z,87.87
2018-02-15T07:09:05.404Z,88.13
2018-02-15T07:10:10.370Z,88.30
2018-02-15T07:11:15.085Z,88.50
2018-02-15T07:12:19.904Z,88.69
2018-02-15T07:13:24.633Z,88.88
2018-02-15T07:14:30.057Z,89.12
2018-02-15T07:15:35.962Z,89.33
2018-02-15T07:16:42.065Z,89.50
2018-02-15T07:17:47.717Z,89.78
2018-02-15T07:18:53.589Z,89.95
2018-02-15T07:19:59.750Z,90.11
2018-02-15T07:21:04.937Z,90.31
2018-02-15T07:22:11.724Z,90.53
2018-02-15T07:23:17.456Z,90.71
2018-02-15T07:24:22.428Z,90.86
2018-02-15T07:25:28.021Z,91.06
2018-02-15T07:26:32.897Z,91.17
2018-02-15T07:27:39.317Z,91.27
2018-02-15T07:28:44.337Z,91.41
2018-02-15T07:29:49.019Z,91.55
2018-02-15T07:30:53.640Z,91.71
2018-02-15T07:31:59.619Z,91.87
2018-02-15T07:33:04.479Z,92.02
2018-02-15T07:34:10.792Z,92.56
2018-02-15T07:35:15.779Z,93.06
2018-02-15T07:36:20.508Z,93.45
2018-02-15T07:37:25.186Z,93.72
2018-02-15T07:38:31.696Z,93.96
2018-02-15T07:39:36.470Z,94.18
2018-02-15T07:40:41.274Z,94.31
2018-02-15T07:41:46.912Z,94.48
2018-02-15T07:42:53.117Z,94.60
2018-02-15T07:43:57.944Z,94.75
2018-02-15T07:45:03.949Z,94.91
2018-02-15T07:46:08.749Z,95.08
2018-02-15T07:47:13.590Z,95.18
2018-02-15T07:48:19.420Z,95.30
2018-02-15T07:49:24.287Z,95.40
2018-02-15T07:50:29.530Z,95.55
2018-02-15T07:51:34.917Z,95.59
2018-02-15T07:52:40.079Z,95.64
2018-02-15T07:53:46.593Z,95.69
2018-02-15T07:54:51.865Z,95.69
2018-02-15T07:55:56.815Z,95.70
2018-02-15T07:57:02.201Z,95.65
2018-02-15T07:58:08.144Z,95.60
2018-02-15T07:59:13.336Z,95.59
2018-02-15T08:00:19.208Z,95.61
2018-02-15T08:01:24.488Z,95.66
2018-02-15T08:02:30.821Z,95.69
2018-02-15T08:03:35.937Z,95.73
2018-02-15T08:04:40.713Z,95.72
2018-02-15T08:05:46.083Z,95.74
2018-02-15T08:06:51.046Z,95.77
2018-02-15T08:07:56.724Z,95.80
2018-02-15T08:09:02.719Z,95.87
2018-02-15T08:10:07.558Z,95.94
2018-02-15T08:11:12.792Z,95.97
2018-02-15T08:12:18.529Z,95.97
2018-02-15T08:13:23.602Z,95.96
2018-02-15T08:14:28.375Z,95.94
2018-02-15T08:15:33.113Z,95.91
2018-02-15T08:16:37.855Z,95.91
2018-02-15T08:17:42.692Z,95.88
2018-02-15T08:18:48.080Z,95.90
2018-02-15T08:19:54.259Z,95.91
2018-02-15T08:21:00.463Z,95.86
2018-02-15T08:22:05.437Z,95.78
2018-02-15T08:23:11.026Z,95.72
2018-02-15T08:24:15.714Z,95.72
2018-02-15T08:25:20.542Z,95.70
2018-02-15T08:26:25.596Z,95.70
2018-02-15T08:27:30.349Z,95.65
2018-02-15T08:28:35.798Z,95.65
2018-02-15T08:29:40.535Z,95.62
2018-02-15T08:30:45.877Z,95.56
2018-02-15T08:31:50.636Z,95.53
2018-02-15T08:32:56.239Z,95.56
2018-02-15T08:34:01.057Z,95.44
2018-02-15T08:35:05.853Z,95.42
2018-02-15T08:36:10.509Z,95.39
2018-02-15T08:37:15.161Z,95.30
2018-02-15T08:38:20.268Z,95.29
2018-02-15T08:39:25.428Z,95.30
2018-02-15T08:41:40.782Z,95.27
2018-02-15T08:42:45.863Z,95.20
2018-02-15T08:43:52.189Z,95.26
2018-02-15T08:44:58.743Z,95.11
2018-02-15T08:46:04.133Z,95.12
2018-02-15T08:47:08.792Z,95.12
2018-02-15T08:48:13.564Z,95.07
2018-02-15T08:49:18.397Z,95.04
2018-02-15T08:50:23.237Z,95.08
2018-02-15T08:51:28.202Z,94.98
2018-02-15T08:52:33.750Z,94.92
2018-02-15T08:53:38.608Z,94.89
2018-02-15T08:54:43.315Z,94.81
2018-02-15T08:55:48.052Z,94.70
2018-02-15T08:56:54.560Z,94.67
2018-02-15T08:57:59.806Z,94.64
2018-02-15T08:59:04.488Z,94.55
2018-02-15T09:00:10.188Z,94.56
2018-02-15T09:01:15.831Z,94.50
2018-02-15T09:02:21.113Z,94.41
2018-02-15T09:03:26.657Z,94.33
2018-02-15T09:04:31.640Z,94.24
2018-02-15T09:05:36.390Z,94.18
2018-02-15T09:06:41.081Z,94.05
2018-02-15T09:07:46.478Z,94.00
2018-02-15T09:08:51.758Z,93.98
2018-02-15T09:09:56.778Z,93.89
2018-02-15T09:11:01.743Z,93.84
2018-02-15T09:12:06.636Z,93.80
2018-02-15T09:13:11.333Z,93.76
2018-02-15T09:14:16.990Z,93.72
2018-02-15T09:15:21.807Z,93.70
2018-02-15T09:16:26.337Z,93.67
2018-02-15T09:17:31.144Z,93.70
2018-02-15T09:18:35.650Z,93.67
2018-02-15T09:19:40.238Z,93.61
2018-02-15T09:20:44.888Z,93.58
2018-02-15T09:21:49.547Z,93.59
2018-02-15T09:22:54.297Z,93.54
2018-02-15T09:23:59.143Z,93.49
2018-02-15T09:25:03.770Z,93.44
2018-02-15T09:26:08.475Z,93.42
2018-02-15T09:27:13.058Z,93.43
2018-02-15T09:28:17.692Z,93.41
2018-02-15T09:29:22.264Z,93.39
2018-02-15T09:30:27.264Z,93.37
2018-02-15T09:31:32.032Z,93.34
2018-02-15T09:32:36.861Z,93.28
2018-02-15T09:33:41.756Z,93.22
2018-02-15T09:34:46.478Z,93.21
2018-02-15T09:35:51.262Z,93.21
2018-02-15T09:36:56.332Z,93.25
2018-02-15T09:38:01.102Z,93.25
2018-02-15T09:39:06.114Z,93.22
2018-02-15T09:40:10.856Z,93.23
2018-02-15T09:41:15.746Z,93.22
2018-02-15T09:42:20.502Z,93.22
2018-02-15T09:43:25.225Z,93.35
2018-02-15T09:44:30.537Z,93.41
2018-02-15T09:45:35.337Z,93.51
2018-02-15T09:46:40.214Z,93.62
2018-02-15T09:47:46.010Z,93.70
2018-02-15T09:48:51.161Z,93.76
2018-02-15T09:49:55.866Z,93.84
2018-02-15T09:51:00.531Z,93.90
2018-02-15T09:52:05.209Z,93.91
2018-02-15T09:53:09.955Z,93.95
2018-02-15T09:54:15.026Z,93.98
2018-02-15T09:55:20.077Z,94.09
2018-02-15T09:56:24.877Z,94.15
2018-02-15T09:57:29.668Z,94.23
2018-02-15T09:58:34.461Z,94.32
2018-02-15T09:59:39.253Z,94.40
2018-02-15T10:00:44.001Z,94.45
2018-02-15T10:01:49.193Z,94.45
2018-02-15T10:02:54.956Z,94.52
2018-02-15T10:04:00.826Z,94.63
2018-02-15T10:05:05.615Z,94.71
2018-02-15T10:06:10.724Z,94.77
2018-02-15T10:07:15.721Z,94.83
2018-02-15T10:08:21.182Z,94.99
2018-02-15T10:09:26.197Z,95.10
2018-02-15T10:10:31.045Z,95.23
2018-02-15T10:11:35.713Z,95.31
2018-02-15T10:12:40.457Z,95.42
2018-02-15T10:13:45.725Z,95.50
2018-02-15T10:14:50.730Z,95.64
2018-02-15T10:15:55.515Z,95.72
2018-02-15T10:17:01.140Z,95.80
2018-02-15T10:18:05.903Z,95.84
2018-02-15T10:19:10.654Z,95.90
2018-02-15T10:20:15.398Z,95.97
2018-02-15T10:21:21.078Z,96.04
2018-02-15T10:22:26.701Z,96.14
2018-02-15T10:23:31.479Z,96.17
2018-02-15T10:24:36.329Z,96.18
2018-02-15T10:25:41.558Z,96.29
2018-02-15T10:26:46.163Z,96.34
2018-02-15T10:27:51.253Z,96.34
2018-02-15T10:28:55.900Z,96.35
2018-02-15T10:30:01.726Z,96.37
2018-02-15T10:31:07.039Z,96.40
2018-02-15T10:32:11.860Z,96.40
2018-02-15T10:33:16.595Z,96.37
2018-02-15T10:34:21.833Z,96.34
2018-02-15T10:35:26.538Z,96.34
2018-02-15T10:36:31.431Z,96.31
2018-02-15T10:37:37.125Z,96.31
2018-02-15T10:38:41.718Z,96.34
2018-02-15T10:39:46.502Z,96.33
2018-02-15T10:40:51.690Z,96.31
2018-02-15T10:41:56.504Z,96.36
2018-02-15T10:43:01.695Z,96.41
2018-02-15T10:44:07.613Z,96.40
2018-02-15T10:45:13.204Z,96.39
2018-02-15T10:46:17.896Z,96.40
2018-02-15T10:47:22.971Z,96.44
2018-02-15T10:48:27.684Z,96.43
2018-02-15T10:49:33.211Z,96.45
2018-02-15T10:50:38.545Z,96.48
2018-02-15T10:51:43.319Z,96.47
2018-02-15T10:52:47.968Z,96.46
2018-02-15T10:53:53.117Z,96.46
2018-02-15T10:54:58.105Z,96.47
2018-02-15T10:56:04.055Z,96.50
2018-02-15T10:57:10.384Z,96.54
2018-02-15T10:58:15.717Z,96.55
2018-02-15T10:59:20.874Z,96.61
2018-02-15T11:00:30.332Z,96.63
2018-02-15T11:01:39.451Z,96.71
2018-02-15T11:02:44.893Z,96.77
2018-02-15T11:03:53.773Z,96.74
2018-02-15T11:05:03.092Z,96.75
2018-02-15T11:06:08.299Z,96.75
2018-02-15T11:07:13.674Z,96.78
2018-02-15T11:08:18.354Z,96.77
2018-02-15T11:09:23.099Z,96.84
2018-02-15T11:10:27.951Z,96.88
2018-02-15T11:11:33.153Z,96.90
2018-02-15T11:12:37.798Z,96.98
2018-02-15T11:13:42.740Z,97.05
2018-02-15T11:14:47.677Z,97.09
2018-02-15T11:15:52.207Z,97.16
2018-02-15T11:16:56.724Z,97.20
2018-02-15T11:18:01.498Z,97.22
2018-02-15T11:19:07.713Z,97.22
2018-02-15T11:20:12.713Z,97.22
2018-02-15T11:21:17.423Z,97.23
2018-02-15T11:22:22.172Z,97.20
2018-02-15T11:23:26.870Z,97.19
2018-02-15T11:24:31.591Z,97.19
2018-02-15T11:25:36.637Z,97.21
2018-02-15T11:26:42.414Z,97.22
2018-02-15T11:27:47.541Z,97.24
2018-02-15T11:28:52.170Z,97.23
2018-02-15T11:29:56.891Z,97.21
2018-02-15T11:31:02.846Z,97.19
2018-02-15T11:32:09.004Z,97.17
2018-02-15T11:33:13.566Z,97.15
2018-02-15T11:34:18.263Z,97.11
2018-02-15T11:35:24.137Z,97.10
2018-02-15T11:36:28.984Z,97.11
2018-02-15T11:37:33.962Z,97.16
2018-02-15T11:38:40.041Z,97.21
2018-02-15T11:39:46.147Z,97.27
2018-02-15T11:40:53.840Z,97.31
2018-02-15T11:41:58.480Z,97.38
2018-02-15T11:43:04.149Z,97.42
2018-02-15T11:44:09.166Z,97.43
2018-02-15T11:45:14.875Z,97.46
2018-02-15T11:46:19.579Z,97.46
2018-02-15T11:47:24.699Z,97.50
2018-02-15T11:48:29.656Z,97.53
2018-02-15T11:49:34.432Z,97.56
2018-02-15T11:50:39.179Z,97.55
2018-02-15T11:51:44.263Z,97.58
2018-02-15T11:52:50.099Z,97.56
2018-02-15T11:53:54.914Z,97.60
2018-02-15T11:54:59.618Z,97.60
2018-02-15T11:56:04.389Z,97.62
2018-02-15T11:57:09.392Z,97.59
2018-02-15T11:58:15.519Z,97.58
2018-02-15T11:59:20.774Z,97.62
2018-02-15T12:00:26.006Z,97.62
2018-02-15T12:01:30.616Z,97.62
2018-02-15T12:02:35.106Z,97.66
2018-02-15T12:03:39.925Z,97.70
2018-02-15T12:04:45.586Z,97.67
2018-02-15T12:05:50.327Z,97.71
2018-02-15T12:06:55.023Z,97.73
2018-02-15T12:08:00.038Z,97.74
2018-02-15T12:09:04.928Z,97.77
2018-02-15T12:10:09.585Z,97.81
2018-02-15T12:11:14.874Z,97.83
2018-02-15T12:12:20.501Z,97.83
2018-02-15T12:13:25.685Z,97.87
2018-02-15T12:14:30.785Z,97.90
2018-02-15T12:15:36.278Z,97.93
2018-02-15T12:16:40.988Z,97.96
2018-02-15T12:17:48.080Z,98.00
2018-02-15T12:18:53.616Z,98.04
2018-02-15T12:19:58.762Z,98.11
2018-02-15T12:21:04.514Z,98.18
2018-02-15T12:22:09.520Z,98.24
2018-02-15T12:23:14.854Z,98.29
2018-02-15T12:24:20.028Z,98.32
2018-02-15T12:25:26.316Z,98.35
2018-02-15T12:26:30.966Z,98.41
2018-02-15T12:27:35.553Z,98.45
2018-02-15T12:28:40.296Z,98.47
2018-02-15T12:29:45.190Z,98.52
2018-02-15T12:30:50.541Z,98.58
2018-02-15T12:31:55.349Z,98.62
2018-02-15T12:33:00.115Z,98.64
2018-02-15T12:34:04.817Z,98.68
2018-02-15T12:35:09.447Z,98.73
2018-02-15T12:36:14.495Z,98.76
2018-02-15T12:37:20.440Z,98.78
2018-02-15T12:38:26.442Z,98.81
2018-02-15T12:39:31.552Z,98.83
2018-02-15T12:40:36.311Z,98.87
2018-02-15T12:41:41.617Z,98.87
2018-02-15T12:42:47.303Z,98.86
2018-02-15T12:43:52.704Z,98.87
2018-02-15T12:44:58.747Z,98.86
2018-02-15T12:46:04.462Z,98.88
2018-02-15T12:47:09.517Z,98.86
2018-02-15T12:48:14.479Z,98.87
2018-02-15T12:49:19.606Z,98.89
2018-02-15T12:50:24.824Z,98.91
2018-02-15T12:51:30.116Z,98.91
2018-02-15T12:52:35.542Z,98.94
2018-02-15T12:53:40.996Z,98.94
2018-02-15T12:54:46.335Z,99.00
2018-02-15T12:55:52.833Z,99.02
2018-02-15T12:56:59.541Z,99.05
2018-02-15T12:58:05.308Z,99.11
2018-02-15T12:59:11.472Z,99.16
2018-02-15T13:00:17.787Z,99.20
2018-02-15T13:01:23.026Z,99.25
2018-02-15T13:02:29.055Z,99.27
2018-02-15T13:03:33.916Z,99.29
2018-02-15T13:04:39.374Z,99.30
2018-02-15T13:05:44.508Z,99.32
2018-02-15T13:06:50.012Z,99.36
2018-02-15T13:07:56.390Z,99.37
2018-02-15T13:09:01.899Z,99.36
2018-02-15T13:10:08.238Z,99.40
2018-02-15T13:11:13.288Z,99.41
2018-02-15T13:12:22.585Z,99.41
2018-02-15T13:13:30.452Z,99.42
2018-02-15T13:14:37.191Z,99.46
2018-02-15T13:15:46.126Z,99.47
2018-02-15T13:16:54.164Z,99.48
2018-02-15T13:17:59.967Z,99.52
2018-02-15T13:19:10.191Z,99.57
2018-02-15T13:20:20.619Z,99.60
2018-02-15T13:21:27.431Z,99.67
2018-02-15T13:22:36.784Z,99.69
2018-02-15T13:23:41.926Z,99.75
2018-02-15T13:24:47.856Z,99.78
2018-02-15T13:25:54.011Z,99.82
2018-02-15T13:27:01.578Z,99.85
2018-02-15T13:28:12.305Z,99.87
2018-02-15T13:29:18.115Z,99.92
2018-02-15T13:30:23.722Z,99.94
2018-02-15T13:31:28.540Z,99.94
2018-02-15T13:32:34.044Z,99.94
2018-02-15T13:33:39.078Z,99.95
2018-02-15T13:34:44.258Z,99.98
2018-02-15T13:35:49.251Z,100.00
2018-02-15T13:36:53.969Z,100.00
2018-02-15T13:37:58.881Z,100.00
2018-02-15T13:39:04.530Z,100.00
2018-02-15T13:40:09.363Z,100.00
2018-02-15T13:41:14.778Z,100.00
2018-02-15T13:42:21.867Z,100.00
2018-02-15T13:43:26.864Z,100.00
2018-02-15T13:44:33.998Z,100.00
2018-02-15T13:45:39.752Z,100.00
2018-02-15T13:46:45.577Z,100.00
2018-02-15T13:47:50.441Z,100.00
2018-02-15T13:48:55.223Z,100.00
2018-02-15T13:50:00.304Z,100.00
2018-02-15T13:51:09.191Z,100.00
2018-02-15T13:52:14.165Z,100.00
2018-02-15T13:53:19.201Z,100.00
2018-02-15T13:54:25.723Z,100.00
2018-02-15T13:55:31.626Z,100.00
2018-02-15T13:56:36.280Z,100.00
2018-02-15T13:57:41.025Z,100.00
2018-02-15T13:58:45.948Z,100.00
2018-02-15T13:59:50.477Z,100.00
2018-02-15T14:00:55.406Z,100.00
2018-02-15T14:02:00.536Z,100.00
2018-02-15T14:03:05.353Z,100.00
2018-02-15T14:04:10.025Z,100.00